Time;durP1;ratioP1;P1;durP2;ratioP2;P2;SDS_P1;SDS_P2;PMS_P1;PMS_P2;Temp;Humidity;BMP_temperature;BMP_pressure;BME280_temperature;BME280_humidity;BME280_pressure;Samples;Min_cycle;Max_cycle;Signal;HPM_P1;HPM_P2
2021/11/01 00:01:04;;;;;;;1.60;1.20;;;11.20;98.20;;;;;;5003511;28;21014;-75
2021/11/01 00:03:32;;;;;;;1.60;1.10;;;11.20;98.20;;;;;;4989834;28;20465;-75
2021/11/01 00:05:58;;;;;;;1.60;1.20;;;11.20;98.20;;;;;;5000999;28;20503;-75
2021/11/01 00:08:26;;;;;;;1.60;1.10;;;11.20;98.20;;;;;;5001096;28;20643;-75
2021/11/01 00:10:53;;;;;;;1.60;1.10;;;11.10;98.20;;;;;;5000905;28;20492;-75
2021/11/01 00:13:20;;;;;;;1.60;1.30;;;11.10;98.20;;;;;;5002478;28;20519;-76
2021/11/01 00:15:47;;;;;;;1.90;1.70;;;11.10;98.20;;;;;;5001439;28;20497;-75
2021/11/01 00:18:15;;;;;;;1.60;1.20;;;11.10;98.20;;;;;;5002944;28;20496;-75
2021/11/01 00:20:41;;;;;;;1.60;1.10;;;11.00;98.20;;;;;;5002005;28;20483;-75
2021/11/01 00:23:08;;;;;;;1.60;1.10;;;11.00;98.20;;;;;;5005233;28;20978;-75
2021/11/01 00:25:36;;;;;;;1.60;1.13;;;11.00;98.20;;;;;;5000305;28;21065;-75
2021/11/01 00:28:05;;;;;;;1.60;1.30;;;11.00;98.20;;;;;;4994029;28;20492;-75
2021/11/01 00:30:32;;;;;;;1.60;1.10;;;11.00;98.20;;;;;;4999349;28;20951;-75
2021/11/01 00:32:58;;;;;;;1.60;1.10;;;10.90;98.20;;;;;;5005097;28;20460;-75
2021/11/01 00:35:25;;;;;;;1.60;1.20;;;10.90;98.20;;;;;;4988954;28;20859;-75
2021/11/01 00:37:52;;;;;;;1.60;1.23;;;10.90;98.20;;;;;;4993449;28;20468;-75
2021/11/01 00:40:19;;;;;;;1.60;1.10;;;10.80;98.20;;;;;;5006360;28;20467;-75
2021/11/01 00:42:47;;;;;;;1.60;1.17;;;10.80;98.20;;;;;;5006739;28;20499;-75
2021/11/01 00:45:14;;;;;;;1.60;1.10;;;10.80;98.20;;;;;;5004530;28;20484;-75
2021/11/01 00:47:41;;;;;;;1.60;1.40;;;10.80;98.20;;;;;;5005510;28;20487;-75
2021/11/01 00:50:08;;;;;;;1.60;1.10;;;10.70;98.20;;;;;;5007771;28;21002;-76
2021/11/01 00:52:36;;;;;;;1.60;1.10;;;10.70;98.20;;;;;;5006729;28;20463;-75
2021/11/01 00:55:04;;;;;;;1.60;1.20;;;10.70;98.20;;;;;;5009589;28;20480;-76
2021/11/01 00:57:31;;;;;;;1.60;1.10;;;10.60;98.20;;;;;;4992277;28;20982;-76
2021/11/01 01:00:00;;;;;;;1.60;1.20;;;10.60;98.20;;;;;;4993616;28;20893;-76
2021/11/01 01:02:31;;;;;;;1.60;1.10;;;10.60;98.20;;;;;;4994632;28;20493;-76
2021/11/01 01:04:58;;;;;;;1.60;1.20;;;10.60;98.20;;;;;;5007226;28;20550;-76
2021/11/01 01:07:25;;;;;;;1.60;1.20;;;10.60;98.20;;;;;;5006508;28;20472;-76
2021/11/01 01:09:52;;;;;;;1.60;1.10;;;10.60;98.20;;;;;;5007900;28;20483;-77
2021/11/01 01:12:19;;;;;;;1.60;1.20;;;10.50;98.20;;;;;;4994831;28;20459;-76
2021/11/01 01:14:52;;;;;;;1.60;1.20;;;10.50;98.20;;;;;;5000168;28;20492;-75
2021/11/01 01:17:21;;;;;;;1.60;1.13;;;10.50;98.20;;;;;;5001838;28;20571;-75
2021/11/01 01:19:52;;;;;;;1.60;1.20;;;10.40;98.20;;;;;;5007899;28;20456;-75
2021/11/01 01:22:28;;;;;;;1.60;1.20;;;10.40;98.20;;;;;;4996113;28;20480;-75
2021/11/01 01:25:04;;;;;;;1.60;1.20;;;10.40;98.20;;;;;;5005057;28;20496;-75
2021/11/01 01:27:31;;;;;;;1.60;1.23;;;10.40;98.20;;;;;;5005821;28;20500;-75
2021/11/01 01:29:58;;;;;;;1.60;1.17;;;10.40;98.20;;;;;;5005358;28;20461;-75
2021/11/01 01:32:26;;;;;;;1.60;1.20;;;10.30;98.20;;;;;;5008236;28;20456;-75
2021/11/01 01:34:53;;;;;;;1.60;1.20;;;10.30;98.20;;;;;;5003862;28;20491;-75
2021/11/01 01:37:20;;;;;;;1.60;1.20;;;10.30;98.20;;;;;;5006675;28;20460;-75
2021/11/01 01:39:46;;;;;;;1.60;1.30;;;10.30;98.20;;;;;;5003284;28;20459;-75
2021/11/01 01:42:13;;;;;;;1.60;1.20;;;10.30;98.20;;;;;;5007999;28;20496;-75
2021/11/01 01:44:40;;;;;;;1.60;1.20;;;10.30;98.20;;;;;;5003273;28;20520;-75
2021/11/01 01:47:07;;;;;;;1.60;1.20;;;10.30;98.20;;;;;;4995438;28;20471;-75
2021/11/01 01:49:36;;;;;;;1.60;1.20;;;10.30;98.20;;;;;;5007790;28;20487;-75
2021/11/01 01:52:03;;;;;;;1.60;1.10;;;10.30;98.20;;;;;;5007612;28;20829;-75
2021/11/01 01:54:30;;;;;;;1.60;1.30;;;10.20;98.20;;;;;;5005471;28;20997;-75
2021/11/01 01:56:57;;;;;;;1.60;1.20;;;10.20;98.20;;;;;;4996809;28;20495;-75
2021/11/01 01:59:24;;;;;;;1.60;1.10;;;10.20;98.20;;;;;;4995785;28;20484;-75
2021/11/01 02:01:51;;;;;;;1.60;1.10;;;10.20;98.20;;;;;;5003344;28;20853;-75
2021/11/01 02:04:21;;;;;;;1.60;1.20;;;10.10;98.20;;;;;;4998004;28;20492;-75
2021/11/01 02:07:08;;;;;;;1.60;1.20;;;10.10;98.20;;;;;;4993553;28;20876;-75
2021/11/01 02:09:45;;;;;;;1.60;1.20;;;10.10;98.20;;;;;;5004716;28;20459;-75
2021/11/01 02:12:17;;;;;;;1.60;1.30;;;10.00;98.20;;;;;;5000488;28;21069;-75
2021/11/01 02:14:46;;;;;;;1.60;1.20;;;10.00;98.20;;;;;;5000853;28;21013;-75
2021/11/01 02:17:16;;;;;;;1.60;1.20;;;10.00;98.20;;;;;;5001959;28;20962;-75
2021/11/01 02:19:47;;;;;;;1.60;1.20;;;10.00;98.20;;;;;;5006412;28;20460;-75
2021/11/01 02:22:18;;;;;;;1.60;1.20;;;10.00;98.20;;;;;;5005906;28;20564;-75
2021/11/01 02:24:57;;;;;;;1.60;1.20;;;10.00;98.20;;;;;;5004570;28;20498;-75
2021/11/01 02:27:27;;;;;;;1.60;1.20;;;10.00;98.20;;;;;;5030674;22;20492;-74
2021/11/01 02:29:54;;;;;;;1.60;1.20;;;10.00;98.20;;;;;;5009505;28;20467;-75
2021/11/01 02:32:22;;;;;;;1.60;1.20;;;10.00;98.20;;;;;;4998791;28;20548;-75
2021/11/01 02:34:49;;;;;;;1.60;1.20;;;9.90;98.20;;;;;;4997084;28;20471;-74
2021/11/01 02:37:16;;;;;;;1.60;1.20;;;9.90;98.20;;;;;;5011110;28;20495;-74
2021/11/01 02:39:51;;;;;;;1.60;1.30;;;9.90;98.20;;;;;;5001247;28;20845;-75
2021/11/01 02:42:19;;;;;;;1.60;1.17;;;9.90;98.20;;;;;;5007937;28;20502;-75
2021/11/01 02:44:53;;;;;;;1.60;1.20;;;9.90;98.20;;;;;;5006132;28;20472;-75
2021/11/01 02:47:20;;;;;;;1.60;1.20;;;9.90;98.20;;;;;;5010814;28;20486;-76
2021/11/01 02:49:47;;;;;;;1.60;1.20;;;9.90;98.20;;;;;;5009403;28;20472;-74
2021/11/01 02:52:14;;;;;;;1.60;1.20;;;9.90;98.20;;;;;;5000759;28;20461;-75
2021/11/01 02:54:40;;;;;;;1.60;1.20;;;9.90;98.20;;;;;;5007740;28;20674;-74
2021/11/01 02:57:07;;;;;;;1.60;1.10;;;9.90;98.20;;;;;;5010645;28;20575;-75
2021/11/01 02:59:34;;;;;;;1.60;1.20;;;9.80;98.20;;;;;;5010740;28;20466;-75
2021/11/01 03:02:02;;;;;;;1.60;1.20;;;9.90;98.20;;;;;;5015011;28;20495;-74
2021/11/01 03:04:29;;;;;;;1.60;1.20;;;9.90;98.20;;;;;;5012140;28;20480;-74
2021/11/01 03:06:58;;;;;;;1.60;1.20;;;9.80;98.20;;;;;;5006985;28;20485;-75
2021/11/01 03:09:25;;;;;;;1.60;1.20;;;9.80;98.20;;;;;;5008233;28;20475;-75
2021/11/01 03:11:52;;;;;;;1.60;1.10;;;9.80;98.20;;;;;;5021601;28;20460;-75
2021/11/01 03:14:27;;;;;;;1.60;1.20;;;9.80;98.20;;;;;;5008371;28;20476;-75
2021/11/01 03:16:56;;;;;;;1.60;1.20;;;9.80;98.20;;;;;;4999738;28;20551;-75
2021/11/01 03:19:29;;;;;;;1.60;1.20;;;9.80;98.20;;;;;;5025147;28;20479;-75
2021/11/01 03:21:59;;;;;;;1.60;1.20;;;9.70;98.20;;;;;;5017610;28;20555;-75
2021/11/01 03:24:30;;;;;;;1.60;1.20;;;9.70;98.20;;;;;;5008763;28;20460;-75
2021/11/01 03:26:58;;;;;;;1.60;1.20;;;9.70;98.20;;;;;;5016017;28;20495;-75
2021/11/01 03:29:26;;;;;;;1.60;1.20;;;9.70;98.20;;;;;;5009818;28;20472;-75
2021/11/01 03:31:54;;;;;;;1.60;1.20;;;9.70;98.20;;;;;;5010417;28;20464;-75
2021/11/01 03:34:22;;;;;;;1.60;1.10;;;9.70;98.20;;;;;;5010546;28;20464;-75
2021/11/01 03:36:52;;;;;;;1.60;1.23;;;9.70;98.20;;;;;;5011095;28;20491;-75
2021/11/01 03:39:20;;;;;;;1.60;1.27;;;9.70;98.20;;;;;;4991281;28;20979;-75
2021/11/01 03:41:47;;;;;;;1.60;1.20;;;9.70;98.20;;;;;;4997107;28;20508;-75
2021/11/01 03:44:19;;;;;;;1.60;1.10;;;9.70;98.20;;;;;;5016499;28;20473;-75
2021/11/01 03:46:51;;;;;;;1.60;1.30;;;9.70;98.20;;;;;;5004618;28;20542;-75
2021/11/01 03:49:18;;;;;;;1.60;1.20;;;9.70;98.20;;;;;;5010133;28;20484;-75
2021/11/01 03:51:49;;;;;;;1.60;1.20;;;9.70;98.20;;;;;;4990314;28;20460;-75
2021/11/01 03:54:19;;;;;;;1.60;1.20;;;9.70;98.20;;;;;;4993009;28;20560;-75
2021/11/01 03:56:47;;;;;;;1.60;1.20;;;9.70;98.20;;;;;;5011923;28;20491;-75
2021/11/01 03:59:15;;;;;;;1.60;1.20;;;9.70;98.20;;;;;;5014022;28;20456;-75
2021/11/01 04:01:45;;;;;;;1.60;1.30;;;9.70;98.20;;;;;;5011635;28;20462;-75
2021/11/01 04:04:12;;;;;;;1.60;1.20;;;9.70;98.20;;;;;;4996756;28;20480;-75
2021/11/01 04:06:41;;;;;;;1.60;1.30;;;9.70;98.20;;;;;;5019468;28;20982;-75
2021/11/01 04:09:08;;;;;;;1.60;1.30;;;9.70;98.20;;;;;;5013260;28;20464;-75
2021/11/01 04:11:37;;;;;;;1.60;1.20;;;9.70;98.20;;;;;;5000830;28;20476;-75
2021/11/01 04:14:10;;;;;;;1.60;1.20;;;9.70;98.20;;;;;;5002051;28;20471;-75
2021/11/01 04:16:41;;;;;;;1.60;1.10;;;9.70;98.20;;;;;;5012571;28;20835;-73
2021/11/01 04:19:31;;;;;;;1.60;1.30;;;9.70;98.20;;;;;;5011518;28;20540;-75
2021/11/01 04:21:58;;;;;;;1.60;1.20;;;9.70;98.20;;;;;;5019473;28;21033;-75
2021/11/01 04:24:28;;;;;;;1.60;1.30;;;9.60;98.20;;;;;;5002927;28;20476;-75
2021/11/01 04:26:56;;;;;;;1.60;1.20;;;9.60;98.20;;;;;;5012881;28;20498;-75
2021/11/01 04:29:25;;;;;;;1.60;1.30;;;9.60;98.20;;;;;;5014989;28;20457;-75
2021/11/01 04:31:57;;;;;;;1.60;1.20;;;9.60;98.20;;;;;;4995780;28;20480;-74
2021/11/01 04:34:30;;;;;;;1.60;1.20;;;9.60;98.20;;;;;;5003320;28;20463;-75
2021/11/01 04:36:57;;;;;;;1.60;1.20;;;9.60;98.20;;;;;;5013783;28;21239;-75
2021/11/01 04:39:31;;;;;;;1.60;1.23;;;9.50;98.20;;;;;;5018876;28;20467;-75
2021/11/01 04:42:19;;;;;;;1.60;1.20;;;9.50;98.20;;;;;;5013786;28;20480;-74
2021/11/01 04:52:53;;;;;;;1.60;1.20;;;9.50;98.20;;;;;;4993303;28;20475;-75
2021/11/01 04:53:24;;;;;;;1.60;1.20;;;9.40;98.20;;;;;;5013402;28;20494;-75
2021/11/01 04:55:51;;;;;;;1.60;1.30;;;9.40;98.20;;;;;;5020553;28;20471;-74
2021/11/01 04:58:19;;;;;;;1.60;1.27;;;9.40;98.20;;;;;;5000614;28;20482;-75
2021/11/01 05:00:47;;;;;;;1.60;1.20;;;9.40;98.20;;;;;;5003346;28;20460;-76
2021/11/01 05:03:26;;;;;;;1.60;1.20;;;9.40;98.20;;;;;;5012175;28;21049;-75
2021/11/01 05:05:54;;;;;;;1.60;1.20;;;9.40;98.20;;;;;;5005793;28;20484;-74
2021/11/01 05:08:26;;;;;;;1.60;1.27;;;9.40;98.20;;;;;;5015300;28;20550;-75
2021/11/01 05:10:58;;;;;;;1.60;1.20;;;9.40;98.20;;;;;;5005761;28;20456;-75
2021/11/01 05:13:29;;;;;;;1.60;1.20;;;9.40;98.20;;;;;;5014344;28;20456;-75
2021/11/01 05:16:00;;;;;;;1.60;1.20;;;9.40;98.20;;;;;;5007414;28;20510;-75
2021/11/01 05:18:30;;;;;;;1.60;1.20;;;9.40;98.20;;;;;;5000741;28;20699;-76
2021/11/01 05:21:07;;;;;;;1.60;1.20;;;9.30;98.20;;;;;;5008667;28;20460;-76
2021/11/01 05:23:36;;;;;;;1.60;1.27;;;9.30;98.20;;;;;;5012567;28;20474;-76
2021/11/01 05:26:06;;;;;;;1.60;1.20;;;9.30;98.20;;;;;;5008631;28;21021;-75
2021/11/01 05:28:43;;;;;;;1.60;1.27;;;9.30;98.20;;;;;;5011721;28;20463;-75
2021/11/01 05:31:15;;;;;;;1.60;1.20;;;9.30;98.20;;;;;;5000369;28;20464;-75
2021/11/01 05:33:52;;;;;;;1.60;1.20;;;9.20;98.20;;;;;;4999380;28;20460;-75
2021/11/01 05:36:20;;;;;;;1.60;1.20;;;9.20;98.20;;;;;;5006282;28;20479;-75
2021/11/01 05:38:48;;;;;;;1.60;1.30;;;9.20;98.20;;;;;;5007793;28;20474;-75
2021/11/01 05:41:16;;;;;;;1.60;1.27;;;9.20;98.20;;;;;;5011494;28;21061;-75
2021/11/01 05:43:44;;;;;;;1.60;1.20;;;9.20;98.20;;;;;;5020885;28;20899;-75
2021/11/01 05:46:12;;;;;;;1.60;1.30;;;9.20;98.20;;;;;;5020604;28;20783;-75
2021/11/01 05:48:38;;;;;;;1.60;1.20;;;9.20;98.20;;;;;;5012196;28;20495;-74
2021/11/01 05:51:07;;;;;;;1.60;1.30;;;9.20;98.20;;;;;;4999101;28;20465;-75
2021/11/01 05:53:37;;;;;;;1.60;1.20;;;9.20;98.20;;;;;;5017602;28;20643;-74
2021/11/01 05:56:17;;;;;;;1.60;1.30;;;9.20;98.20;;;;;;5009046;28;20609;-74
2021/11/01 05:58:55;;;;;;;1.60;1.30;;;9.20;98.20;;;;;;4999339;28;21005;-75
2021/11/01 06:01:39;;;;;;;1.60;1.30;;;9.20;98.20;;;;;;5008838;28;20954;-74
2021/11/01 06:04:10;;;;;;;1.60;1.20;;;9.20;98.20;;;;;;5004115;28;20563;-74
2021/11/01 06:09:46;;;;;;;1.60;1.20;;;9.20;98.20;;;;;;4999273;28;20464;-74
2021/11/01 06:15:07;;;;;;;1.60;1.20;;;9.10;98.20;;;;;;4980954;28;20526;-75
2021/11/01 06:17:34;;;;;;;1.60;1.10;;;9.10;98.20;;;;;;5008720;28;20480;-73
2021/11/01 06:20:01;;;;;;;1.60;1.17;;;9.10;98.20;;;;;;5000481;28;20471;-74
2021/11/01 06:22:28;;;;;;;1.60;1.20;;;9.10;98.20;;;;;;5013316;28;20487;-75
2021/11/01 06:24:58;;;;;;;1.60;1.30;;;9.10;98.20;;;;;;5025117;28;20817;-75
2021/11/01 06:27:25;;;;;;;1.60;1.20;;;9.10;98.20;;;;;;4999705;28;20500;-72
2021/11/01 06:30:07;;;;;;;1.60;1.20;;;9.00;98.20;;;;;;5002990;28;20556;-73
2021/11/01 06:32:40;;;;;;;1.60;1.30;;;9.10;98.20;;;;;;5010073;28;20499;-75
2021/11/01 06:43:24;;;;;;;1.60;1.30;;;9.00;98.20;;;;;;5002914;28;20516;-73
2021/11/01 06:49:42;;;;;;;1.60;1.30;;;9.10;98.20;;;;;;5024499;28;20472;-73
2021/11/01 06:51:52;;;;;;;1.60;1.30;;;9.00;98.20;;;;;;4995936;28;20460;-73
2021/11/01 07:16:26;;;;;;;1.60;1.20;;;9.30;98.20;;;;;;5026377;28;20538;-73
2021/11/01 07:18:57;;;;;;;1.60;1.30;;;9.40;98.20;;;;;;5024375;28;20833;-73
2021/11/01 07:24:46;;;;;;;1.60;1.20;;;9.50;98.20;;;;;;4970457;28;20492;-73
2021/11/01 08:22:21;;;;;;;1.60;1.10;;;11.70;98.20;;;;;;5006211;28;20476;-74
2021/11/01 09:04:02;;;;;;;1.60;1.10;;;12.70;98.20;;;;;;5073688;28;20449;-75
2021/11/01 09:20:28;;;;;;;1.60;1.00;;;13.30;98.20;;;;;;5101124;28;20514;-76
2021/11/01 09:23:12;;;;;;;1.53;1.00;;;13.30;98.20;;;;;;5099626;28;20459;-75
2021/11/01 09:28:27;;;;;;;1.57;1.00;;;13.50;98.20;;;;;;5091841;27;20456;-76
2021/11/01 09:36:36;;;;;;;1.60;1.00;;;13.80;98.20;;;;;;5093770;28;20463;-75
2021/11/01 09:39:20;;;;;;;1.50;1.00;;;13.80;98.20;;;;;;5089564;28;20816;-75
2021/11/01 09:41:48;;;;;;;1.57;1.00;;;13.90;98.20;;;;;;5099286;28;21046;-75
2021/11/01 09:44:20;;;;;;;1.60;1.10;;;13.90;98.20;;;;;;5092681;28;20459;-75
2021/11/01 09:46:48;;;;;;;1.53;1.00;;;13.80;97.80;;;;;;5093032;28;20541;-75
2021/11/01 09:49:15;;;;;;;1.57;1.10;;;13.80;98.10;;;;;;5089386;28;20967;-73
2021/11/01 09:51:48;;;;;;;1.60;0.90;;;13.80;98.20;;;;;;5085982;28;20468;-76
2021/11/01 09:54:23;;;;;;;1.53;1.00;;;13.90;98.00;;;;;;5087492;28;20483;-74
2021/11/01 09:56:59;;;;;;;1.57;1.00;;;14.00;97.40;;;;;;5085314;28;20488;-73
2021/11/01 09:59:29;;;;;;;1.50;1.00;;;14.00;97.50;;;;;;5075810;28;20457;-76
2021/11/01 10:01:57;;;;;;;1.53;1.00;;;14.00;97.50;;;;;;5082762;28;21021;-73
2021/11/01 10:04:26;;;;;;;1.53;1.00;;;14.00;96.70;;;;;;5068949;28;20469;-73
2021/11/01 10:07:16;;;;;;;1.53;1.00;;;14.10;98.10;;;;;;5071378;28;20869;-74
2021/11/01 10:09:43;;;;;;;1.57;1.00;;;14.20;96.40;;;;;;5074420;28;20456;-74
2021/11/01 10:12:12;;;;;;;1.60;1.20;;;14.30;95.40;;;;;;5082065;28;20578;-73
2021/11/01 10:14:47;;;;;;;1.53;1.00;;;14.40;95.10;;;;;;5080069;28;20653;-74
2021/11/01 10:17:34;;;;;;;1.60;1.00;;;14.40;94.70;;;;;;5072529;28;20476;-75
2021/11/01 10:20:01;;;;;;;1.60;1.13;;;14.40;93.90;;;;;;5069635;28;20484;-75
2021/11/01 10:22:35;;;;;;;1.53;1.00;;;14.30;94.20;;;;;;5078223;28;20496;-74
2021/11/01 10:25:02;;;;;;;1.57;1.00;;;14.30;93.90;;;;;;5080403;28;20465;-74
2021/11/01 10:27:30;;;;;;;1.60;1.10;;;14.40;94.30;;;;;;5066951;28;20492;-73
2021/11/01 10:30:00;;;;;;;1.60;1.00;;;14.50;93.20;;;;;;5074359;28;20502;-74
2021/11/01 10:32:29;;;;;;;1.53;1.00;;;14.50;92.40;;;;;;5078643;28;20852;-73
2021/11/01 10:35:20;;;;;;;1.60;1.10;;;14.50;91.70;;;;;;5073190;28;20461;-74
2021/11/01 10:38:03;;;;;;;1.57;1.00;;;14.50;90.40;;;;;;5069761;28;20479;-74
2021/11/01 10:40:31;;;;;;;1.50;1.00;;;14.50;90.60;;;;;;5052971;28;20846;-76
2021/11/01 10:43:09;;;;;;;1.50;1.00;;;14.60;91.70;;;;;;5058817;28;20995;-74
2021/11/01 10:46:07;;;;;;;1.50;1.00;;;14.60;90.40;;;;;;5049220;28;20470;-77
2021/11/01 10:57:27;;;;;;;1.53;1.00;;;14.80;90.10;;;;;;5053022;28;20556;-75
2021/11/01 11:13:47;;;;;;;1.57;1.00;;;15.10;88.10;;;;;;5048361;28;20457;-76
2021/11/01 11:16:28;;;;;;;1.57;1.00;;;15.10;87.30;;;;;;5053671;28;20536;-76
2021/11/01 11:19:06;;;;;;;1.60;1.10;;;15.10;87.70;;;;;;5050136;28;20466;-76
2021/11/01 11:21:51;;;;;;;1.57;1.00;;;15.20;87.40;;;;;;5052390;28;20493;-76
2021/11/01 11:27:34;;;;;;;1.60;1.10;;;15.30;86.40;;;;;;5050356;28;20897;-75
2021/11/01 11:33:29;;;;;;;1.53;1.00;;;15.50;88.60;;;;;;5013994;28;20604;-76
2021/11/01 11:39:16;;;;;;;1.53;1.00;;;15.90;87.90;;;;;;5055839;28;20540;-75
2021/11/01 11:47:25;;;;;;;1.57;1.10;;;16.20;84.70;;;;;;5051167;28;20868;-74
2021/11/01 11:49:53;;;;;;;1.53;1.00;;;16.20;85.10;;;;;;5058406;28;20469;-75
2021/11/01 11:52:23;;;;;;;1.57;1.00;;;16.30;86.10;;;;;;5046093;28;20493;-74
2021/11/01 11:54:55;;;;;;;1.53;0.97;;;16.40;86.20;;;;;;5044344;28;20467;-73
2021/11/01 11:57:25;;;;;;;1.50;1.00;;;16.40;83.90;;;;;;5047562;28;20948;-73
2021/11/01 11:59:54;;;;;;;1.57;1.00;;;16.50;84.10;;;;;;5053517;28;20529;-76
2021/11/01 12:02:35;;;;;;;1.50;0.97;;;16.50;83.00;;;;;;5048093;28;20778;-73
2021/11/01 12:05:13;;;;;;;1.50;0.93;;;16.50;82.70;;;;;;5056417;28;20958;-73
2021/11/01 12:07:47;;;;;;;1.50;1.00;;;16.50;83.50;;;;;;5049972;28;20487;-75
2021/11/01 12:10:30;;;;;;;1.53;1.00;;;16.50;84.10;;;;;;5049205;28;20620;-75
2021/11/01 12:13:08;;;;;;;1.50;0.97;;;16.60;83.60;;;;;;5050375;28;20595;-75
2021/11/01 12:18:29;;;;;;;1.50;1.00;;;16.50;81.60;;;;;;5052277;28;20437;-74
2021/11/01 12:20:59;;;;;;;1.53;1.00;;;16.40;82.10;;;;;;5042022;28;20862;-74
2021/11/01 12:23:36;;;;;;;1.50;1.00;;;16.40;83.30;;;;;;5045733;28;20497;-74
2021/11/01 12:26:09;;;;;;;1.50;0.90;;;16.50;83.70;;;;;;5046298;28;20497;-75
2021/11/01 12:28:37;;;;;;;1.50;1.00;;;16.60;83.60;;;;;;5045998;28;20472;-74
2021/11/01 12:31:04;;;;;;;1.53;1.00;;;16.70;83.00;;;;;;5051200;28;20465;-74
2021/11/01 12:33:32;;;;;;;1.53;1.00;;;16.80;82.30;;;;;;5054631;28;20470;-74
2021/11/01 12:36:03;;;;;;;1.50;0.90;;;16.90;82.60;;;;;;5049870;28;20485;-74
2021/11/01 12:38:37;;;;;;;1.53;1.00;;;17.00;82.70;;;;;;5049554;28;20576;-75
2021/11/01 12:41:22;;;;;;;1.60;1.00;;;17.10;83.00;;;;;;5049028;28;20555;-73
2021/11/01 12:57:46;;;;;;;1.50;1.00;;;16.60;82.70;;;;;;5049917;28;20470;-74
2021/11/01 13:00:14;;;;;;;1.50;1.00;;;16.30;81.90;;;;;;5043185;28;20462;-73
2021/11/01 13:02:42;;;;;;;1.50;0.97;;;16.20;83.40;;;;;;5054698;28;20901;-75
2021/11/01 13:05:13;;;;;;;1.50;1.00;;;16.10;83.80;;;;;;5055921;28;20477;-74
2021/11/01 13:07:50;;;;;;;1.57;1.00;;;15.90;85.10;;;;;;5049800;28;20575;-74
2021/11/01 13:10:23;;;;;;;1.50;1.03;;;15.90;83.90;;;;;;5050904;28;20457;-74
2021/11/01 13:13:19;;;;;;;1.53;1.00;;;15.80;84.40;;;;;;5043942;28;21091;-73
2021/11/01 13:18:30;;;;;;;1.90;1.70;;;15.70;84.70;;;;;;5075136;28;20497;-75
2021/11/01 13:20:59;;;;;;;1.50;0.90;;;15.70;85.50;;;;;;5050292;28;20579;-73
2021/11/01 13:23:30;;;;;;;1.53;0.93;;;15.60;84.80;;;;;;5046615;28;20470;-73
2021/11/01 13:26:06;;;;;;;1.50;0.97;;;15.50;85.40;;;;;;5050076;28;20558;-75
2021/11/01 13:28:47;;;;;;;1.53;1.00;;;15.40;84.90;;;;;;5058544;28;20560;-74
2021/11/01 13:37:21;;;;;;;1.50;1.00;;;15.10;85.80;;;;;;4990221;28;21129;-74
2021/11/01 13:40:00;;;;;;;1.50;1.00;;;15.10;86.20;;;;;;5042594;28;20857;-74
2021/11/01 13:42:26;;;;;;;1.50;1.00;;;15.10;86.80;;;;;;5052926;28;20512;-75
2021/11/01 13:45:06;;;;;;;1.53;1.00;;;15.10;86.20;;;;;;5051863;28;20462;-74
2021/11/01 13:47:43;;;;;;;1.50;1.00;;;15.20;86.70;;;;;;5059083;28;20532;-74
2021/11/01 13:50:11;;;;;;;1.53;1.00;;;15.20;87.20;;;;;;5052081;28;20465;-74
2021/11/01 13:52:39;;;;;;;1.50;0.90;;;15.30;87.20;;;;;;5050838;28;20851;-73
2021/11/01 13:55:11;;;;;;;1.50;0.90;;;15.30;86.10;;;;;;5050845;28;20581;-75
2021/11/01 13:57:51;;;;;;;1.57;1.00;;;15.30;85.90;;;;;;5053441;28;20485;-74
2021/11/01 14:00:34;;;;;;;1.53;1.00;;;15.20;85.30;;;;;;5052313;28;20532;-74
2021/11/01 14:03:08;;;;;;;1.50;1.00;;;15.20;86.00;;;;;;5054640;28;20464;-74
2021/11/01 14:11:33;;;;;;;1.53;1.00;;;14.90;85.20;;;;;;5047551;28;21246;-73
2021/11/01 14:16:54;;;;;;;1.60;1.00;;;14.70;86.40;;;;;;5066166;28;20543;-73
2021/11/01 14:27:52;;;;;;;1.60;1.00;;;14.50;86.20;;;;;;5056063;28;20477;-73
2021/11/01 14:36:23;;;;;;;1.50;1.00;;;14.40;86.70;;;;;;5036605;28;20615;-72
2021/11/01 14:58:41;;;;;;;1.50;1.00;;;14.40;88.30;;;;;;5051211;28;20455;-73
2021/11/01 15:01:36;;;;;;;1.50;1.00;;;14.40;87.50;;;;;;5051023;28;20806;-73
2021/11/01 15:13:05;;;;;;;1.50;1.00;;;14.40;88.20;;;;;;5046673;28;20465;-74
2021/11/01 15:16:05;;;;;;;1.60;1.10;;;14.30;88.60;;;;;;5050833;28;20528;-73
2021/11/01 15:18:45;;;;;;;1.50;1.00;;;14.30;88.50;;;;;;5069232;28;20491;-73
2021/11/01 15:21:22;;;;;;;1.57;1.10;;;14.30;89.20;;;;;;5063115;28;20501;-72
2021/11/01 15:29:38;;;;;;;1.50;0.90;;;14.20;89.40;;;;;;5055356;28;20458;-75
2021/11/01 15:40:57;;;;;;;1.50;0.90;;;14.10;90.30;;;;;;5060616;28;21460;-76
2021/11/01 16:19:06;;;;;;;1.60;1.20;;;13.20;92.40;;;;;;5029019;28;20466;-76
2021/11/01 16:21:34;;;;;;;1.50;1.00;;;13.10;92.90;;;;;;5039919;28;20485;-74
2021/11/01 16:24:04;;;;;;;1.50;1.10;;;13.00;93.70;;;;;;5037493;28;20478;-76
2021/11/01 16:26:33;;;;;;;1.57;1.10;;;13.00;93.80;;;;;;5048786;28;20493;-74
2021/11/01 16:29:06;;;;;;;1.57;1.10;;;12.90;93.60;;;;;;5049438;28;20462;-74
2021/11/01 16:31:42;;;;;;;1.53;1.00;;;12.80;94.00;;;;;;5047688;28;20466;-76
2021/11/01 16:34:14;;;;;;;1.50;1.00;;;12.70;94.30;;;;;;5052635;28;20508;-76
2021/11/01 16:39:51;;;;;;;1.53;1.10;;;12.60;95.40;;;;;;5051495;28;20457;-76
2021/11/01 16:42:20;;;;;;;1.50;1.00;;;12.50;94.60;;;;;;5054254;28;21088;-76
2021/11/01 16:44:49;;;;;;;1.53;1.10;;;12.50;95.20;;;;;;5052371;28;20477;-75
2021/11/01 16:47:18;;;;;;;1.50;1.10;;;12.40;95.20;;;;;;5051171;28;20559;-75
2021/11/01 16:49:49;;;;;;;1.50;1.10;;;12.30;95.10;;;;;;5054707;28;20482;-75
2021/11/01 16:52:22;;;;;;;1.50;1.00;;;12.30;95.00;;;;;;5056586;28;20553;-75
2021/11/01 16:54:52;;;;;;;1.53;1.10;;;12.20;95.60;;;;;;5064685;28;20465;-74
2021/11/01 16:57:23;;;;;;;1.57;1.10;;;12.20;95.40;;;;;;5052386;28;20710;-75
2021/11/01 16:59:57;;;;;;;1.50;1.10;;;12.10;95.50;;;;;;5053794;28;22939;-76
2021/11/01 17:02:44;;;;;;;1.53;1.10;;;12.10;95.80;;;;;;5058062;28;20505;-75
2021/11/01 17:05:26;;;;;;;1.53;1.10;;;12.00;95.90;;;;;;5060803;28;20473;-76
2021/11/01 17:22:02;;;;;;;1.50;1.10;;;11.80;96.70;;;;;;5058767;28;20494;-76
2021/11/01 17:24:39;;;;;;;1.50;1.10;;;11.70;96.80;;;;;;5050577;28;20480;-76
2021/11/01 17:35:54;;;;;;;1.53;1.10;;;11.50;97.70;;;;;;5052912;28;20568;-75
2021/11/01 18:41:21;;;;;;;1.53;1.20;;;10.50;98.20;;;;;;5026518;28;20569;-76
2021/11/01 18:50:48;;;;;;;1.60;1.20;;;10.40;98.20;;;;;;5011705;28;21084;-75
2021/11/01 18:52:26;;;;;;;1.53;1.20;;;10.40;98.20;;;;;;5049649;28;20450;-76
2021/11/01 18:54:56;;;;;;;1.50;1.10;;;10.30;98.20;;;;;;5050065;28;20470;-75
2021/11/01 18:57:28;;;;;;;1.57;1.20;;;10.30;98.20;;;;;;5047744;28;20596;-76
2021/11/01 19:00:05;;;;;;;1.53;1.20;;;10.30;98.20;;;;;;5050667;28;20495;-75
2021/11/01 19:02:41;;;;;;;1.50;1.10;;;10.30;98.20;;;;;;5046882;28;20482;-75
2021/11/01 19:05:24;;;;;;;1.50;1.10;;;10.30;98.20;;;;;;5048720;28;20591;-75
2021/11/01 19:08:00;;;;;;;1.50;1.20;;;10.30;98.20;;;;;;5044880;28;20493;-76
2021/11/01 20:03:59;;;;;;;1.57;1.20;;;9.70;98.20;;;;;;5046912;28;20461;-76
2021/11/01 20:06:57;;;;;;;1.50;1.10;;;9.70;98.20;;;;;;5042894;28;20505;-76
2021/11/01 20:10:00;;;;;;;1.57;1.20;;;9.70;98.20;;;;;;5044668;28;20570;-75
2021/11/01 21:25:51;;;;;;;1.60;1.30;;;9.00;98.20;;;;;;5084622;28;20533;-74
2021/11/01 21:28:30;;;;;;;1.60;1.30;;;9.00;98.20;;;;;;5086421;28;20820;-76
2021/11/01 21:31:09;;;;;;;1.60;1.30;;;9.00;98.20;;;;;;5084714;28;20476;-73
2021/11/01 21:33:36;;;;;;;1.60;1.33;;;9.00;98.20;;;;;;5076685;28;20464;-75
2021/11/01 21:36:07;;;;;;;1.53;1.20;;;9.00;98.20;;;;;;5074505;28;20584;-75
2021/11/01 21:38:36;;;;;;;1.57;1.30;;;9.00;98.20;;;;;;5077714;28;20476;-76
2021/11/01 21:41:08;;;;;;;1.57;1.30;;;9.00;98.20;;;;;;5072726;28;20556;-75
2021/11/01 21:43:48;;;;;;;1.53;1.13;;;9.00;98.20;;;;;;5078726;28;20485;-75
2021/11/01 21:46:16;;;;;;;1.60;1.20;;;9.00;98.20;;;;;;5077567;28;20503;-77
2021/11/01 21:49:01;;;;;;;1.57;1.20;;;9.00;98.20;;;;;;5090599;28;20846;-77
2021/11/01 21:51:31;;;;;;;1.60;1.37;;;9.00;98.20;;;;;;5087638;28;21304;-76
2021/11/01 21:54:05;;;;;;;1.60;1.30;;;9.00;98.20;;;;;;5092625;28;20483;-77
2021/11/01 21:56:34;;;;;;;1.60;1.20;;;8.90;98.20;;;;;;5095748;28;20503;-74
2021/11/01 21:59:16;;;;;;;1.53;1.20;;;8.90;98.20;;;;;;5094234;28;20467;-77
2021/11/01 22:10:16;;;;;;;1.60;1.30;;;8.80;98.20;;;;;;5093579;28;20985;-76
2021/11/01 22:21:03;;;;;;;1.60;1.30;;;8.60;98.20;;;;;;5090163;28;20496;-76
2021/11/01 22:23:38;;;;;;;1.60;1.30;;;8.60;98.20;;;;;;5093661;28;20542;-76
2021/11/01 22:26:19;;;;;;;1.53;1.27;;;8.60;98.20;;;;;;5090335;28;20488;-76
2021/11/01 22:32:24;;;;;;;1.60;1.20;;;8.60;98.20;;;;;;4995837;28;20449;-76
2021/11/01 22:38:15;;;;;;;1.60;1.20;;;8.60;98.20;;;;;;5068618;28;20538;-75
2021/11/01 22:40:35;;;;;;;1.60;1.30;;;8.60;98.20;;;;;;5081249;28;20983;-76
2021/11/01 22:43:07;;;;;;;1.60;1.30;;;8.60;98.20;;;;;;5087378;28;20579;-76
2021/11/01 22:45:39;;;;;;;1.57;1.30;;;8.60;98.20;;;;;;5071996;28;20499;-76
2021/11/01 22:56:47;;;;;;;1.60;1.40;;;8.60;98.20;;;;;;5084454;28;20496;-76
2021/11/01 22:59:15;;;;;;;1.60;1.30;;;8.60;98.20;;;;;;5071479;28;20549;-76